sensor_id;sensor_type;location;lat;lon;timestamp;pressure;altitude;pressure_sealevel;temperature;humidity
47815;BME280;33579;50.058;18.130;2023-08-21T00:00:51;99739.06;;;22.91;100.00
47815;BME280;33579;50.058;18.130;2023-08-21T00:01:53;99735.75;;;22.88;100.00
47815;BME280;33579;50.058;18.130;2023-08-21T00:02:54;99730.41;;;22.88;100.00
47815;BME280;33579;50.058;18.130;2023-08-21T00:03:56;99724.81;;;22.90;100.00
47815;BME280;33579;50.058;18.130;2023-08-21T00:04:58;99731.00;;;22.91;100.00
47815;BME280;33579;50.058;18.130;2023-08-21T00:05:59;99728.94;;;22.93;100.00
47815;BME280;33579;50.058;18.130;2023-08-21T00:07:01;99721.75;;;22.93;100.00
47815;BME280;33579;50.058;18.130;2023-08-21T00:08:03;99712.84;;;22.93;100.00
47815;BME280;33579;50.058;18.130;2023-08-21T00:09:05;99722.97;;;22.97;100.00
47815;BME280;33579;50.058;18.130;2023-08-21T00:10:07;99718.66;;;22.96;100.00
47815;BME280;33579;50.058;18.130;2023-08-21T00:11:09;99709.56;;;22.97;100.00
47815;BME280;33579;50.058;18.130;2023-08-21T00:12:11;99719.50;;;22.97;100.00
47815;BME280;33579;50.058;18.130;2023-08-21T00:13:13;99715.53;;;22.93;100.00
47815;BME280;33579;50.058;18.130;2023-08-21T00:14:15;99719.28;;;22.98;100.00
47815;BME280;33579;50.058;18.130;2023-08-21T00:15:16;99719.88;;;23.00;100.00
47815;BME280;33579;50.058;18.130;2023-08-21T00:16:19;99716.41;;;23.00;100.00
47815;BME280;33579;50.058;18.130;2023-08-21T00:17:20;99716.16;;;23.01;100.00
47815;BME280;33579;50.058;18.130;2023-08-21T00:18:22;99717.00;;;23.02;100.00
47815;BME280;33579;50.058;18.130;2023-08-21T00:19:24;99714.34;;;23.02;100.00
47815;BME280;33579;50.058;18.130;2023-08-21T00:20:26;99715.38;;;23.01;100.00
47815;BME280;33579;50.058;18.130;2023-08-21T00:21:27;99713.31;;;23.03;100.00
47815;BME280;33579;50.058;18.130;2023-08-21T00:22:29;99707.53;;;23.06;100.00
47815;BME280;33579;50.058;18.130;2023-08-21T00:23:31;99705.88;;;23.05;100.00
47815;BME280;33579;50.058;18.130;2023-08-21T00:24:32;99705.69;;;23.07;100.00
47815;BME280;33579;50.058;18.130;2023-08-21T00:25:34;99702.16;;;23.06;100.00
47815;BME280;33579;50.058;18.130;2023-08-21T00:26:36;99701.72;;;23.02;100.00
47815;BME280;33579;50.058;18.130;2023-08-21T00:27:37;99700.72;;;23.04;100.00
47815;BME280;33579;50.058;18.130;2023-08-21T00:28:39;99706.09;;;23.04;100.00
47815;BME280;33579;50.058;18.130;2023-08-21T00:29:40;99697.19;;;23.03;100.00
47815;BME280;33579;50.058;18.130;2023-08-21T00:30:42;99703.78;;;23.00;100.00
47815;BME280;33579;50.058;18.130;2023-08-21T00:31:44;99709.78;;;23.02;100.00
47815;BME280;33579;50.058;18.130;2023-08-21T00:32:45;99714.53;;;23.07;100.00
47815;BME280;33579;50.058;18.130;2023-08-21T00:33:47;99717.22;;;23.07;100.00
47815;BME280;33579;50.058;18.130;2023-08-21T00:34:49;99723.00;;;23.04;100.00
47815;BME280;33579;50.058;18.130;2023-08-21T00:35:50;99721.34;;;23.03;100.00
47815;BME280;33579;50.058;18.130;2023-08-21T00:36:52;99723.00;;;23.04;100.00
47815;BME280;33579;50.058;18.130;2023-08-21T00:37:54;99723.41;;;23.01;100.00
47815;BME280;33579;50.058;18.130;2023-08-21T00:38:55;99726.91;;;23.08;100.00
47815;BME280;33579;50.058;18.130;2023-08-21T00:39:57;99720.75;;;23.08;100.00
47815;BME280;33579;50.058;18.130;2023-08-21T00:40:59;99739.13;;;23.11;100.00
47815;BME280;33579;50.058;18.130;2023-08-21T00:42:00;99728.59;;;23.09;100.00
47815;BME280;33579;50.058;18.130;2023-08-21T00:43:02;99732.94;;;23.10;100.00
47815;BME280;33579;50.058;18.130;2023-08-21T00:44:03;99729.41;;;23.10;100.00
47815;BME280;33579;50.058;18.130;2023-08-21T00:45:05;99727.75;;;23.02;100.00
47815;BME280;33579;50.058;18.130;2023-08-21T00:46:07;99729.22;;;23.05;100.00
47815;BME280;33579;50.058;18.130;2023-08-21T00:47:09;99730.00;;;22.98;100.00
47815;BME280;33579;50.058;18.130;2023-08-21T00:48:11;99731.84;;;22.91;100.00
47815;BME280;33579;50.058;18.130;2023-08-21T00:49:15;99731.19;;;22.82;100.00
47815;BME280;33579;50.058;18.130;2023-08-21T00:50:17;99727.66;;;22.75;100.00
47815;BME280;33579;50.058;18.130;2023-08-21T00:51:19;99728.50;;;22.82;100.00
47815;BME280;33579;50.058;18.130;2023-08-21T00:52:21;99733.88;;;22.89;100.00
47815;BME280;33579;50.058;18.130;2023-08-21T00:53:23;99726.06;;;22.87;100.00
47815;BME280;33579;50.058;18.130;2023-08-21T00:54:26;99729.78;;;22.86;100.00
47815;BME280;33579;50.058;18.130;2023-08-21T00:55:27;99730.59;;;22.87;100.00
47815;BME280;33579;50.058;18.130;2023-08-21T00:56:30;99733.06;;;22.88;100.00
47815;BME280;33579;50.058;18.130;2023-08-21T00:57:33;99726.69;;;22.96;100.00
47815;BME280;33579;50.058;18.130;2023-08-21T00:58:34;99731.22;;;22.96;100.00
47815;BME280;33579;50.058;18.130;2023-08-21T00:59:38;99725.66;;;22.97;100.00
47815;BME280;33579;50.058;18.130;2023-08-21T01:00:41;99731.22;;;22.96;100.00
47815;BME280;33579;50.058;18.130;2023-08-21T01:01:43;99734.31;;;22.93;100.00
47815;BME280;33579;50.058;18.130;2023-08-21T01:02:45;99738.63;;;22.87;100.00
47815;BME280;33579;50.058;18.130;2023-08-21T01:03:47;99733.06;;;22.82;100.00
47815;BME280;33579;50.058;18.130;2023-08-21T01:04:48;99738.00;;;22.78;100.00
47815;BME280;33579;50.058;18.130;2023-08-21T01:05:50;99735.50;;;22.77;100.00
47815;BME280;33579;50.058;18.130;2023-08-21T01:06:52;99740.84;;;22.77;100.00
47815;BME280;33579;50.058;18.130;2023-08-21T01:08:05;99736.75;;;22.74;100.00
47815;BME280;33579;50.058;18.130;2023-08-21T01:11:58;99736.25;;;22.57;100.00
47815;BME280;33579;50.058;18.130;2023-08-21T01:13:15;99732.94;;;22.48;100.00
47815;BME280;33579;50.058;18.130;2023-08-21T01:14:54;99731.22;;;22.47;100.00
47815;BME280;33579;50.058;18.130;2023-08-21T01:15:59;99729.16;;;22.42;100.00
47815;BME280;33579;50.058;18.130;2023-08-21T01:17:02;99729.53;;;22.39;100.00
47815;BME280;33579;50.058;18.130;2023-08-21T01:18:06;99729.13;;;22.36;100.00
47815;BME280;33579;50.058;18.130;2023-08-21T01:19:35;99722.91;;;22.35;100.00
47815;BME280;33579;50.058;18.130;2023-08-21T01:20:38;99726.63;;;22.34;100.00
47815;BME280;33579;50.058;18.130;2023-08-21T01:21:40;99727.66;;;22.33;100.00
47815;BME280;33579;50.058;18.130;2023-08-21T01:22:42;99727.84;;;22.31;100.00
47815;BME280;33579;50.058;18.130;2023-08-21T01:23:45;99724.53;;;22.29;100.00
47815;BME280;33579;50.058;18.130;2023-08-21T01:24:47;99723.09;;;22.33;100.00
47815;BME280;33579;50.058;18.130;2023-08-21T01:25:50;99731.16;;;21.98;100.00
47815;BME280;33579;50.058;18.130;2023-08-21T01:26:52;99731.59;;;21.73;100.00
47815;BME280;33579;50.058;18.130;2023-08-21T01:27:54;99722.16;;;21.78;100.00
47815;BME280;33579;50.058;18.130;2023-08-21T01:28:56;99723.66;;;21.87;100.00
47815;BME280;33579;50.058;18.130;2023-08-21T01:29:58;99728.09;;;22.01;100.00
47815;BME280;33579;50.058;18.130;2023-08-21T01:33:06;99728.81;;;21.88;100.00
47815;BME280;33579;50.058;18.130;2023-08-21T01:34:04;99721.38;;;21.62;100.00
47815;BME280;33579;50.058;18.130;2023-08-21T01:35:07;99728.19;;;21.65;100.00
47815;BME280;33579;50.058;18.130;2023-08-21T01:36:08;99727.69;;;21.76;100.00
47815;BME280;33579;50.058;18.130;2023-08-21T01:37:10;99730.63;;;21.81;100.00
47815;BME280;33579;50.058;18.130;2023-08-21T01:38:13;99725.31;;;21.88;100.00
47815;BME280;33579;50.058;18.130;2023-08-21T01:39:15;99726.19;;;21.95;100.00
47815;BME280;33579;50.058;18.130;2023-08-21T01:40:22;99721.25;;;21.99;100.00
47815;BME280;33579;50.058;18.130;2023-08-21T01:41:24;99721.72;;;22.02;100.00
47815;BME280;33579;50.058;18.130;2023-08-21T01:42:25;99719.47;;;22.06;100.00
47815;BME280;33579;50.058;18.130;2023-08-21T01:43:27;99715.59;;;22.15;100.00
47815;BME280;33579;50.058;18.130;2023-08-21T01:44:29;99718.25;;;22.15;100.00
47815;BME280;33579;50.058;18.130;2023-08-21T01:45:30;99711.53;;;21.91;100.00
47815;BME280;33579;50.058;18.130;2023-08-21T01:46:32;99707.72;;;21.79;100.00
47815;BME280;33579;50.058;18.130;2023-08-21T01:47:34;99721.56;;;21.60;100.00
47815;BME280;33579;50.058;18.130;2023-08-21T01:48:36;99713.53;;;21.60;100.00
47815;BME280;33579;50.058;18.130;2023-08-21T01:49:37;99716.22;;;21.60;100.00
47815;BME280;33579;50.058;18.130;2023-08-21T01:50:40;99711.19;;;21.51;100.00
47815;BME280;33579;50.058;18.130;2023-08-21T01:51:41;99716.03;;;21.40;100.00
47815;BME280;33579;50.058;18.130;2023-08-21T01:52:43;99713.75;;;21.37;100.00
47815;BME280;33579;50.058;18.130;2023-08-21T01:53:45;99711.84;;;21.31;100.00
47815;BME280;33579;50.058;18.130;2023-08-21T01:54:49;99717.38;;;21.29;100.00
47815;BME280;33579;50.058;18.130;2023-08-21T01:55:51;99715.47;;;21.23;100.00
47815;BME280;33579;50.058;18.130;2023-08-21T01:56:53;99720.38;;;21.19;100.00
47815;BME280;33579;50.058;18.130;2023-08-21T01:57:55;99717.81;;;21.11;100.00
47815;BME280;33579;50.058;18.130;2023-08-21T01:58:56;99720.47;;;21.11;100.00
47815;BME280;33579;50.058;18.130;2023-08-21T01:59:58;99713.88;;;21.07;100.00
47815;BME280;33579;50.058;18.130;2023-08-21T02:01:00;99720.59;;;21.18;100.00
47815;BME280;33579;50.058;18.130;2023-08-21T02:02:01;99714.44;;;21.24;100.00
47815;BME280;33579;50.058;18.130;2023-08-21T02:03:03;99709.44;;;21.36;100.00
47815;BME280;33579;50.058;18.130;2023-08-21T02:04:05;99703.13;;;21.44;100.00
47815;BME280;33579;50.058;18.130;2023-08-21T02:05:07;99716.63;;;21.36;100.00
47815;BME280;33579;50.058;18.130;2023-08-21T02:06:08;99708.59;;;21.36;100.00
47815;BME280;33579;50.058;18.130;2023-08-21T02:07:10;99711.50;;;21.41;100.00
47815;BME280;33579;50.058;18.130;2023-08-21T02:08:13;99710.34;;;21.50;100.00
47815;BME280;33579;50.058;18.130;2023-08-21T02:09:15;99709.78;;;21.55;100.00
47815;BME280;33579;50.058;18.130;2023-08-21T02:10:16;99702.19;;;21.58;100.00
47815;BME280;33579;50.058;18.130;2023-08-21T02:11:18;99702.66;;;21.62;100.00
47815;BME280;33579;50.058;18.130;2023-08-21T02:12:19;99700.22;;;21.67;100.00
47815;BME280;33579;50.058;18.130;2023-08-21T02:13:21;99706.22;;;21.69;100.00
47815;BME280;33579;50.058;18.130;2023-08-21T02:14:23;99707.88;;;21.70;100.00
47815;BME280;33579;50.058;18.130;2023-08-21T02:15:24;99707.28;;;21.75;100.00
47815;BME280;33579;50.058;18.130;2023-08-21T02:16:26;99712.06;;;21.80;100.00
47815;BME280;33579;50.058;18.130;2023-08-21T02:17:29;99708.38;;;21.81;100.00
47815;BME280;33579;50.058;18.130;2023-08-21T02:18:31;99715.19;;;21.83;100.00
47815;BME280;33579;50.058;18.130;2023-08-21T02:19:33;99714.34;;;21.83;100.00
47815;BME280;33579;50.058;18.130;2023-08-21T02:20:34;99706.53;;;21.81;100.00
47815;BME280;33579;50.058;18.130;2023-08-21T02:21:36;99710.03;;;21.82;100.00
47815;BME280;33579;50.058;18.130;2023-08-21T02:22:38;99714.34;;;21.83;100.00
47815;BME280;33579;50.058;18.130;2023-08-21T02:23:40;99713.13;;;21.85;100.00
47815;BME280;33579;50.058;18.130;2023-08-21T02:24:41;99713.75;;;21.87;100.00
47815;BME280;33579;50.058;18.130;2023-08-21T02:25:43;99708.41;;;21.87;100.00
47815;BME280;33579;50.058;18.130;2023-08-21T02:26:45;99696.22;;;21.85;100.00
47815;BME280;33579;50.058;18.130;2023-08-21T02:27:47;99710.06;;;21.88;100.00
47815;BME280;33579;50.058;18.130;2023-08-21T02:28:48;99705.72;;;21.87;100.00
47815;BME280;33579;50.058;18.130;2023-08-21T02:29:50;99700.97;;;21.83;100.00
47815;BME280;33579;50.058;18.130;2023-08-21T02:30:52;99701.97;;;21.82;100.00
47815;BME280;33579;50.058;18.130;2023-08-21T02:31:53;99698.81;;;21.71;100.00
47815;BME280;33579;50.058;18.130;2023-08-21T02:32:56;99702.59;;;21.55;100.00
47815;BME280;33579;50.058;18.130;2023-08-21T02:33:58;99708.56;;;21.57;100.00
47815;BME280;33579;50.058;18.130;2023-08-21T02:34:59;99702.66;;;21.62;100.00
47815;BME280;33579;50.058;18.130;2023-08-21T02:36:01;99705.94;;;21.64;100.00
47815;BME280;33579;50.058;18.130;2023-08-21T02:37:04;99704.25;;;21.56;100.00
47815;BME280;33579;50.058;18.130;2023-08-21T02:38:06;99708.75;;;21.56;100.00
47815;BME280;33579;50.058;18.130;2023-08-21T02:39:10;99707.22;;;21.46;100.00
47815;BME280;33579;50.058;18.130;2023-08-21T02:40:11;99704.94;;;21.43;100.00
47815;BME280;33579;50.058;18.130;2023-08-21T02:41:13;99710.69;;;21.40;100.00
47815;BME280;33579;50.058;18.130;2023-08-21T02:42:18;99706.94;;;21.34;100.00
47815;BME280;33579;50.058;18.130;2023-08-21T02:43:20;99705.78;;;21.44;100.00
47815;BME280;33579;50.058;18.130;2023-08-21T02:44:22;99705.00;;;21.50;100.00
47815;BME280;33579;50.058;18.130;2023-08-21T02:45:23;99711.00;;;21.52;100.00
47815;BME280;33579;50.058;18.130;2023-08-21T02:46:25;99705.44;;;21.54;100.00
47815;BME280;33579;50.058;18.130;2023-08-21T02:47:27;99711.44;;;21.56;100.00
47815;BME280;33579;50.058;18.130;2023-08-21T02:48:30;99707.16;;;21.61;100.00
47815;BME280;33579;50.058;18.130;2023-08-21T02:49:32;99708.50;;;21.72;100.00
47815;BME280;33579;50.058;18.130;2023-08-21T02:50:34;99698.44;;;21.74;100.00
47815;BME280;33579;50.058;18.130;2023-08-21T02:51:36;99692.84;;;21.69;100.00
47815;BME280;33579;50.058;18.130;2023-08-21T02:52:38;99701.88;;;21.68;100.00
47815;BME280;33579;50.058;18.130;2023-08-21T02:53:41;99697.38;;;21.69;100.00
47815;BME280;33579;50.058;18.130;2023-08-21T02:54:43;99695.72;;;21.68;100.00
47815;BME280;33579;50.058;18.130;2023-08-21T02:55:45;99695.03;;;21.66;100.00
47815;BME280;33579;50.058;18.130;2023-08-21T02:56:47;99701.06;;;21.68;100.00
47815;BME280;33579;50.058;18.130;2023-08-21T02:57:48;99707.06;;;21.70;100.00
47815;BME280;33579;50.058;18.130;2023-08-21T02:58:50;99706.84;;;21.71;100.00
47815;BME280;33579;50.058;18.130;2023-08-21T02:59:52;99708.31;;;21.74;100.00
47815;BME280;33579;50.058;18.130;2023-08-21T03:00:53;99702.97;;;21.74;100.00
47815;BME280;33579;50.058;18.130;2023-08-21T03:01:55;99704.44;;;21.76;100.00
47815;BME280;33579;50.058;18.130;2023-08-21T03:02:57;99705.63;;;21.74;100.00
47815;BME280;33579;50.058;18.130;2023-08-21T03:03:59;99704.44;;;21.76;100.00
47815;BME280;33579;50.058;18.130;2023-08-21T03:05:01;99697.22;;;21.77;100.00
47815;BME280;33579;50.058;18.130;2023-08-21T03:06:03;99703.84;;;21.81;100.00
47815;BME280;33579;50.058;18.130;2023-08-21T03:07:05;99704.88;;;21.80;100.00
47815;BME280;33579;50.058;18.130;2023-08-21T03:08:07;99710.03;;;21.82;100.00
47815;BME280;33579;50.058;18.130;2023-08-21T03:09:08;99707.16;;;21.83;100.00
47815;BME280;33579;50.058;18.130;2023-08-21T03:10:10;99705.09;;;21.85;100.00
47815;BME280;33579;50.058;18.130;2023-08-21T03:11:14;99710.06;;;21.88;100.00
47815;BME280;33579;50.058;18.130;2023-08-21T03:12:15;99712.56;;;21.90;100.00
47815;BME280;33579;50.058;18.130;2023-08-21T03:13:17;99706.94;;;21.85;100.00
47815;BME280;33579;50.058;18.130;2023-08-21T03:14:21;99711.47;;;21.84;100.00
47815;BME280;33579;50.058;18.130;2023-08-21T03:15:22;99713.31;;;21.84;100.00
47815;BME280;33579;50.058;18.130;2023-08-21T03:16:24;99706.91;;;21.78;100.00
47815;BME280;33579;50.058;18.130;2023-08-21T03:17:26;99713.28;;;21.77;100.00
47815;BME280;33579;50.058;18.130;2023-08-21T03:18:31;99719.66;;;21.76;100.00
47815;BME280;33579;50.058;18.130;2023-08-21T03:19:33;99709.53;;;21.71;100.00
47815;BME280;33579;50.058;18.130;2023-08-21T03:20:34;99713.63;;;21.67;100.00
47815;BME280;33579;50.058;18.130;2023-08-21T03:21:36;99712.34;;;21.63;100.00
47815;BME280;33579;50.058;18.130;2023-08-21T03:22:38;99717.25;;;21.59;100.00
47815;BME280;33579;50.058;18.130;2023-08-21T03:23:40;99715.13;;;21.55;100.00
47815;BME280;33579;50.058;18.130;2023-08-21T03:24:42;99716.56;;;21.51;100.00
47815;BME280;33579;50.058;18.130;2023-08-21T03:25:43;99718.97;;;21.45;100.00
47815;BME280;33579;50.058;18.130;2023-08-21T03:26:45;99716.69;;;21.42;100.00
47815;BME280;33579;50.058;18.130;2023-08-21T03:27:47;99715.84;;;21.42;100.00
47815;BME280;33579;50.058;18.130;2023-08-21T03:28:48;99710.69;;;21.40;100.00
47815;BME280;33579;50.058;18.130;2023-08-21T03:29:50;99712.34;;;21.41;100.00
47815;BME280;33579;50.058;18.130;2023-08-21T03:30:52;99714.00;;;21.42;100.00
47815;BME280;33579;50.058;18.130;2023-08-21T03:31:54;99701.25;;;21.44;100.00
47815;BME280;33579;50.058;18.130;2023-08-21T03:32:56;99708.47;;;21.44;100.00
47815;BME280;33579;50.058;18.130;2023-08-21T03:33:58;99715.59;;;21.37;100.00
47815;BME280;33579;50.058;18.130;2023-08-21T03:35:01;99711.44;;;21.34;100.00
47815;BME280;33579;50.058;18.130;2023-08-21T03:36:03;99712.91;;;21.37;100.00
47815;BME280;33579;50.058;18.130;2023-08-21T03:37:05;99713.50;;;21.32;100.00
47815;BME280;33579;50.058;18.130;2023-08-21T03:38:07;99717.59;;;21.28;100.00
47815;BME280;33579;50.058;18.130;2023-08-21T03:39:17;99714.91;;;21.28;100.00
47815;BME280;33579;50.058;18.130;2023-08-21T03:40:21;99722.94;;;21.28;100.00
47815;BME280;33579;50.058;18.130;2023-08-21T03:41:24;99719.22;;;21.29;100.00
47815;BME280;33579;50.058;18.130;2023-08-21T03:42:27;99714.06;;;21.27;100.00
47815;BME280;33579;50.058;18.130;2023-08-21T03:43:28;99708.53;;;21.29;100.00
47815;BME280;33579;50.058;18.130;2023-08-21T03:44:30;99714.34;;;21.32;100.00
47815;BME280;33579;50.058;18.130;2023-08-21T03:45:33;99717.88;;;21.40;100.00
47815;BME280;33579;50.058;18.130;2023-08-21T03:46:38;99715.03;;;21.41;100.00
47815;BME280;33579;50.058;18.130;2023-08-21T03:47:39;99707.63;;;21.43;100.00
47815;BME280;33579;50.058;18.130;2023-08-21T03:48:49;99702.41;;;21.35;100.00
47815;BME280;33579;50.058;18.130;2023-08-21T03:49:51;99709.56;;;21.28;100.00
47815;BME280;33579;50.058;18.130;2023-08-21T03:50:55;99710.81;;;21.32;100.00
47815;BME280;33579;50.058;18.130;2023-08-21T03:51:57;99704.44;;;21.33;100.00
47815;BME280;33579;50.058;18.130;2023-08-21T03:52:59;99697.44;;;21.32;100.00
47815;BME280;33579;50.058;18.130;2023-08-21T03:54:00;99695.09;;;21.22;100.00
47815;BME280;33579;50.058;18.130;2023-08-21T03:55:02;99700.06;;;21.25;100.00
47815;BME280;33579;50.058;18.130;2023-08-21T03:56:04;99701.06;;;21.24;100.00
47815;BME280;33579;50.058;18.130;2023-08-21T03:57:06;99694.69;;;21.25;100.00
47815;BME280;33579;50.058;18.130;2023-08-21T03:58:08;99694.97;;;21.30;100.00
47815;BME280;33579;50.058;18.130;2023-08-21T03:59:10;99689.28;;;21.40;100.00
47815;BME280;33579;50.058;18.130;2023-08-21T04:00:12;99697.19;;;21.48;100.00
47815;BME280;33579;50.058;18.130;2023-08-21T04:01:16;99691.22;;;21.53;100.00
47815;BME280;33579;50.058;18.130;2023-08-21T04:02:18;99691.44;;;21.52;100.00
47815;BME280;33579;50.058;18.130;2023-08-21T04:03:20;99689.22;;;21.33;100.00
47815;BME280;33579;50.058;18.130;2023-08-21T04:04:22;99695.59;;;21.11;100.00
47815;BME280;33579;50.058;18.130;2023-08-21T04:05:23;99702.41;;;20.91;100.00
47815;BME280;33579;50.058;18.130;2023-08-21T04:06:25;99701.38;;;20.77;100.00
47815;BME280;33579;50.058;18.130;2023-08-21T04:07:27;99698.56;;;20.49;100.00
47815;BME280;33579;50.058;18.130;2023-08-21T04:08:29;99705.84;;;20.55;100.00
47815;BME280;33579;50.058;18.130;2023-08-21T04:09:30;99705.88;;;20.40;100.00
47815;BME280;33579;50.058;18.130;2023-08-21T04:10:32;99705.31;;;20.45;100.00
47815;BME280;33579;50.058;18.130;2023-08-21T04:11:34;99704.28;;;20.46;100.00
47815;BME280;33579;50.058;18.130;2023-08-21T04:12:35;99709.25;;;20.49;100.00
47815;BME280;33579;50.058;18.130;2023-08-21T04:13:38;99701.31;;;20.56;100.00
47815;BME280;33579;50.058;18.130;2023-08-21T04:14:39;99704.69;;;20.43;100.00
47815;BME280;33579;50.058;18.130;2023-08-21T04:15:45;99703.75;;;20.50;100.00
47815;BME280;33579;50.058;18.130;2023-08-21T04:16:47;99701.06;;;20.66;100.00
47815;BME280;33579;50.058;18.130;2023-08-21T04:17:49;99706.19;;;20.82;100.00
47815;BME280;33579;50.058;18.130;2023-08-21T04:18:50;99707.34;;;20.95;100.00
47815;BME280;33579;50.058;18.130;2023-08-21T04:19:53;99705.78;;;21.00;100.00
47815;BME280;33579;50.058;18.130;2023-08-21T04:20:54;99702.78;;;21.10;100.00
47815;BME280;33579;50.058;18.130;2023-08-21T04:21:56;99702.66;;;21.18;100.00
47815;BME280;33579;50.058;18.130;2023-08-21T04:22:57;99699.88;;;21.27;100.00
47815;BME280;33579;50.058;18.130;2023-08-21T04:23:59;99696.69;;;21.16;100.00
47815;BME280;33579;50.058;18.130;2023-08-21T04:25:01;99697.13;;;20.98;100.00
47815;BME280;33579;50.058;18.130;2023-08-21T04:26:04;99693.75;;;20.89;100.00
47815;BME280;33579;50.058;18.130;2023-08-21T04:27:05;99695.78;;;20.87;100.00
47815;BME280;33579;50.058;18.130;2023-08-21T04:28:07;99692.50;;;20.92;100.00
47815;BME280;33579;50.058;18.130;2023-08-21T04:29:09;99697.44;;;20.88;100.00
47815;BME280;33579;50.058;18.130;2023-08-21T04:30:11;99696.97;;;20.85;100.00
47815;BME280;33579;50.058;18.130;2023-08-21T04:31:13;99694.56;;;20.90;100.00
47815;BME280;33579;50.058;18.130;2023-08-21T04:32:16;99693.75;;;20.89;100.00
47815;BME280;33579;50.058;18.130;2023-08-21T04:33:18;99690.75;;;20.99;100.00
47815;BME280;33579;50.058;18.130;2023-08-21T04:34:22;99695.84;;;20.94;100.00
47815;BME280;33579;50.058;18.130;2023-08-21T04:35:24;99695.19;;;20.92;100.00
47815;BME280;33579;50.058;18.130;2023-08-21T04:36:26;99700.59;;;20.99;100.00
47815;BME280;33579;50.058;18.130;2023-08-21T04:37:28;99704.19;;;21.06;100.00
47815;BME280;33579;50.058;18.130;2023-08-21T04:38:30;99703.28;;;21.20;100.00
47815;BME280;33579;50.058;18.130;2023-08-21T04:39:32;99707.13;;;21.33;100.00
47815;BME280;33579;50.058;18.130;2023-08-21T04:40:33;99707.81;;;21.42;100.00
47815;BME280;33579;50.058;18.130;2023-08-21T04:41:35;99703.81;;;21.53;100.00
47815;BME280;33579;50.058;18.130;2023-08-21T04:42:37;99703.47;;;21.62;100.00
47815;BME280;33579;50.058;18.130;2023-08-21T04:43:39;99704.81;;;21.73;100.00
47815;BME280;33579;50.058;18.130;2023-08-21T04:44:42;99704.31;;;21.63;100.00
47815;BME280;33579;50.058;18.130;2023-08-21T04:45:47;99702.97;;;21.52;100.00
47815;BME280;33579;50.058;18.130;2023-08-21T04:46:49;99701.53;;;21.50;100.00
47815;BME280;33579;50.058;18.130;2023-08-21T04:47:51;99701.88;;;21.46;100.00
47815;BME280;33579;50.058;18.130;2023-08-21T04:48:53;99703.94;;;21.44;100.00
47815;BME280;33579;50.058;18.130;2023-08-21T04:49:55;99697.31;;;21.40;100.00
47815;BME280;33579;50.058;18.130;2023-08-21T04:50:57;99700.03;;;21.47;100.00
47815;BME280;33579;50.058;18.130;2023-08-21T04:51:59;99697.47;;;21.60;100.00
47815;BME280;33579;50.058;18.130;2023-08-21T04:53:00;99701.88;;;21.68;100.00
47815;BME280;33579;50.058;18.130;2023-08-21T04:54:02;99704.22;;;21.78;100.00
47815;BME280;33579;50.058;18.130;2023-08-21T04:55:06;99702.47;;;21.92;100.00
47815;BME280;33579;50.058;18.130;2023-08-21T04:56:09;99715.94;;;22.06;100.00
47815;BME280;33579;50.058;18.130;2023-08-21T04:57:10;99717.63;;;22.13;100.00
47815;BME280;33579;50.058;18.130;2023-08-21T04:58:13;99707.53;;;22.15;100.00
47815;BME280;33579;50.058;18.130;2023-08-21T04:59:15;99712.31;;;22.20;100.00
47815;BME280;33579;50.058;18.130;2023-08-21T05:00:17;99719.19;;;22.29;100.00
47815;BME280;33579;50.058;18.130;2023-08-21T05:01:19;99713.66;;;22.38;100.00
47815;BME280;33579;50.058;18.130;2023-08-21T05:02:23;99712.28;;;22.49;100.00
47815;BME280;33579;50.058;18.130;2023-08-21T05:03:26;99715.44;;;22.59;100.00
47815;BME280;33579;50.058;18.130;2023-08-21T05:04:28;99717.34;;;22.72;100.00
47815;BME280;33579;50.058;18.130;2023-08-21T05:05:30;99711.38;;;22.83;100.00
47815;BME280;33579;50.058;18.130;2023-08-21T05:06:32;99711.19;;;22.92;100.00
47815;BME280;33579;50.058;18.130;2023-08-21T05:07:34;99710.81;;;23.01;100.00
47815;BME280;33579;50.058;18.130;2023-08-21T05:08:36;99707.75;;;23.11;100.00
47815;BME280;33579;50.058;18.130;2023-08-21T05:09:40;99712.09;;;23.19;100.00
47815;BME280;33579;50.058;18.130;2023-08-21T05:10:44;99712.09;;;23.12;100.00
47815;BME280;33579;50.058;18.130;2023-08-21T05:11:46;99708.38;;;23.13;100.00
47815;BME280;33579;50.058;18.130;2023-08-21T05:12:48;99711.25;;;23.25;100.00
47815;BME280;33579;50.058;18.130;2023-08-21T05:13:51;99715.63;;;23.33;100.00
47815;BME280;33579;50.058;18.130;2023-08-21T05:14:55;99721.44;;;23.43;100.00
47815;BME280;33579;50.058;18.130;2023-08-21T05:15:58;99718.97;;;23.55;100.00
47815;BME280;33579;50.058;18.130;2023-08-21T05:17:04;99731.97;;;23.65;100.00
47815;BME280;33579;50.058;18.130;2023-08-21T05:18:06;99727.03;;;23.69;100.00
47815;BME280;33579;50.058;18.130;2023-08-21T05:19:07;99727.03;;;23.76;100.00
47815;BME280;33579;50.058;18.130;2023-08-21T05:20:09;99736.31;;;23.80;100.00
47815;BME280;33579;50.058;18.130;2023-08-21T05:21:12;99736.91;;;23.82;100.00
47815;BME280;33579;50.058;18.130;2023-08-21T05:22:14;99731.53;;;23.82;100.00
47815;BME280;33579;50.058;18.130;2023-08-21T05:23:16;99740.03;;;23.85;100.00
47815;BME280;33579;50.058;18.130;2023-08-21T05:24:20;99739.81;;;23.87;100.00
47815;BME280;33579;50.058;18.130;2023-08-21T05:25:28;99739.41;;;23.90;100.00
47815;BME280;33579;50.058;18.130;2023-08-21T05:26:30;99737.94;;;23.94;100.00
47815;BME280;33579;50.058;18.130;2023-08-21T05:27:31;99742.50;;;23.94;100.00